Time,TemperatureF,DewpointF,PressureIn,WindDirection,WindDirectionDegrees,WindSpeedMPH,WindSpeedGustMPH,Humidity,HourlyPrecipIn,Conditions,Clouds,dailyrainin,SoftwareType,DateUTC
2013-10-20 00:02:00,-999.0,-99.9,29.89,SW,214,8.0,-999.0,-999,-99.99,,,-99.99,,2013-10-20 04:02:00,
2013-10-20 00:14:00,44.0,36.0,29.89,SW,214,8.0,-999.0,74,-99.99,,,-99.99,,2013-10-20 04:14:00,
2013-10-20 00:24:00,44.0,37.0,29.89,SW,217,8.0,-999.0,75,-99.99,,,-99.99,,2013-10-20 04:24:00,
2013-10-20 00:54:00,43.0,36.0,29.89,SW,218,9.0,-999.0,76,-99.99,,,-99.99,,2013-10-20 04:54:00,
2013-10-20 01:23:00,43.0,36.0,29.89,SW,222,10.0,-999.0,77,-99.99,,,-99.99,,2013-10-20 05:23:00,
2013-10-20 01:43:00,43.0,37.0,29.89,SSW,213,9.0,-999.0,78,-99.99,,,-99.99,,2013-10-20 05:43:00,
2013-10-20 01:52:00,43.0,37.0,29.89,SW,214,9.0,-999.0,78,-99.99,,,-99.99,,2013-10-20 05:52:00,
2013-10-20 02:22:00,43.0,37.0,29.89,SW,225,8.0,-999.0,78,-99.99,,,-99.99,,2013-10-20 06:22:00,
2013-10-20 02:52:00,44.0,38.0,29.89,SSW,208,9.0,-999.0,78,-99.99,,,-99.99,,2013-10-20 06:52:00,
2013-10-20 03:12:00,44.0,38.0,29.89,SSW,209,10.0,-999.0,79,-99.99,,,-99.99,,2013-10-20 07:12:00,
2013-10-20 03:22:00,44.0,38.0,29.89,SSW,211,9.0,-999.0,79,-99.99,,,-99.99,,2013-10-20 07:22:00,
2013-10-20 03:42:00,44.0,38.0,29.88,SSW,196,10.0,-999.0,79,-99.99,,,-99.99,,2013-10-20 07:42:00,
2013-10-20 03:52:00,44.0,38.0,29.88,SSW,196,10.0,-999.0,79,-99.99,,,-99.99,,2013-10-20 07:52:00,
2013-10-20 04:22:00,44.0,38.0,29.87,SSW,200,10.0,-999.0,79,-99.99,,,-99.99,,2013-10-20 08:22:00,
2013-10-20 04:42:00,43.0,37.0,29.87,SSW,205,11.0,-999.0,78,-99.99,,,-99.99,,2013-10-20 08:42:00,
2013-10-20 04:52:00,43.0,37.0,29.87,SSW,206,10.0,-999.0,78,-99.99,,,-99.99,,2013-10-20 08:52:00,
2013-10-20 05:11:00,42.0,36.0,29.86,SSW,201,8.0,-999.0,80,-99.99,,,-99.99,,2013-10-20 09:11:00,
2013-10-20 05:21:00,42.0,36.0,29.87,SSW,207,8.0,-999.0,80,-99.99,,,-99.99,,2013-10-20 09:21:00,
2013-10-20 05:43:00,41.0,36.0,29.87,SSW,213,9.0,-999.0,81,-99.99,,,-99.99,,2013-10-20 09:43:00,
2013-10-20 05:53:00,41.0,36.0,29.88,SSW,213,8.0,-999.0,81,-99.99,,,-99.99,,2013-10-20 09:53:00,
2013-10-20 06:12:00,41.0,36.0,29.88,SSW,211,8.0,-999.0,81,-99.99,,,-99.99,,2013-10-20 10:12:00,
2013-10-20 06:23:00,41.0,37.0,29.88,SSW,200,7.0,-999.0,86,-99.99,,,-99.99,,2013-10-20 10:23:00,
2013-10-20 06:53:00,40.0,35.0,29.88,SSW,205,9.0,-999.0,83,-99.99,,,-99.99,,2013-10-20 10:53:00,
2013-10-20 07:12:00,40.0,36.0,29.88,SSW,202,10.0,-999.0,84,-99.99,,,-99.99,,2013-10-20 11:12:00,
2013-10-20 07:22:00,40.0,36.0,29.88,SW,217,10.0,-999.0,85,-99.99,,,-99.99,,2013-10-20 11:22:00,
2013-10-20 07:43:00,40.0,36.0,29.89,SSW,210,8.0,-999.0,85,-99.99,,,-99.99,,2013-10-20 11:43:00,
2013-10-20 07:52:00,40.0,36.0,29.89,SW,214,7.0,-999.0,85,-99.99,,,-99.99,,2013-10-20 11:52:00,
2013-10-20 08:11:00,40.0,36.0,29.89,SSW,211,7.0,-999.0,85,-99.99,,,-99.99,,2013-10-20 12:11:00,
2013-10-20 08:22:00,40.0,36.0,29.89,SSW,209,8.0,-999.0,86,-99.99,,,-99.99,,2013-10-20 12:22:00,
2013-10-20 08:42:00,40.0,36.0,29.90,SSW,209,8.0,-999.0,86,-99.99,,,-99.99,,2013-10-20 12:42:00,
2013-10-20 08:52:00,40.0,36.0,29.90,SSW,207,7.0,-999.0,87,-99.99,,,-99.99,,2013-10-20 12:52:00,
2013-10-20 09:11:00,41.0,37.0,29.91,SW,222,7.0,-999.0,87,-99.99,,,-99.99,,2013-10-20 13:11:00,
2013-10-20 09:22:00,42.0,38.0,29.91,SW,227,9.0,-999.0,85,-99.99,,,-99.99,,2013-10-20 13:22:00,
2013-10-20 09:42:00,43.0,38.0,29.92,SW,218,9.0,-999.0,84,-99.99,,,-99.99,,2013-10-20 13:42:00,
2013-10-20 09:52:00,44.0,39.0,29.93,SW,215,11.0,-999.0,82,-99.99,,,-99.99,,2013-10-20 13:52:00,
2013-10-20 10:22:00,45.0,40.0,29.93,SW,224,11.0,-999.0,81,-99.99,,,-99.99,,2013-10-20 14:22:00,
2013-10-20 10:42:00,46.0,40.0,29.93,SW,222,11.0,-999.0,79,-99.99,,,-99.99,,2013-10-20 14:42:00,
2013-10-20 10:52:00,47.0,40.0,29.93,SW,217,12.0,-999.0,77,-99.99,,,-99.99,,2013-10-20 14:52:00,
2013-10-20 11:11:00,48.0,41.0,29.94,WSW,238,11.0,-999.0,76,-99.99,,,-99.99,,2013-10-20 15:11:00,
2013-10-20 11:22:00,49.0,41.0,29.93,SW,227,10.0,-999.0,75,-99.99,,,-99.99,,2013-10-20 15:22:00,
2013-10-20 11:44:00,50.0,42.0,29.93,SW,227,10.0,-999.0,73,-99.99,,,-99.99,,2013-10-20 15:44:00,
2013-10-20 11:54:00,51.0,42.0,29.93,SSW,211,10.0,-999.0,71,-99.99,,,-99.99,,2013-10-20 15:54:00,
2013-10-20 12:14:00,52.0,43.0,29.93,SW,214,11.0,-999.0,70,-99.99,,,-99.99,,2013-10-20 16:14:00,
2013-10-20 12:24:00,52.0,43.0,29.93,SSW,210,11.0,-999.0,71,-99.99,,,-99.99,,2013-10-20 16:24:00,
2013-10-20 12:43:00,53.0,43.0,29.93,SW,214,13.0,-999.0,68,-99.99,,,-99.99,,2013-10-20 16:43:00,
2013-10-20 12:54:00,54.0,43.0,29.93,South,191,13.0,-999.0,67,-99.99,,,-99.99,,2013-10-20 16:54:00,
2013-10-20 13:12:00,55.0,43.0,29.93,South,191,12.0,-999.0,64,-99.99,,,-99.99,,2013-10-20 17:12:00,
2013-10-20 13:23:00,56.0,43.0,29.92,SSW,192,13.0,-999.0,62,-99.99,,,-99.99,,2013-10-20 17:23:00,
2013-10-20 13:42:00,58.0,44.0,29.91,SSW,196,14.0,-999.0,60,-99.99,,,-99.99,,2013-10-20 17:42:00,
2013-10-20 13:52:00,58.0,44.0,29.91,South,190,15.0,-999.0,60,-99.99,,,-99.99,,2013-10-20 17:52:00,
2013-10-20 14:12:00,59.0,45.0,29.90,SSW,206,15.0,-999.0,59,-99.99,,,-99.99,,2013-10-20 18:12:00,
2013-10-20 14:22:00,60.0,45.0,29.89,South,190,16.0,-999.0,58,-99.99,,,-99.99,,2013-10-20 18:22:00,
2013-10-20 14:42:00,60.0,45.0,29.89,SSW,211,17.0,-999.0,57,-99.99,,,-99.99,,2013-10-20 18:42:00,
2013-10-20 14:52:00,61.0,47.0,29.88,South,175,14.0,-999.0,59,-99.99,,,-99.99,,2013-10-20 18:52:00,
2013-10-20 15:12:00,62.0,46.0,29.87,SW,224,16.0,-999.0,56,-99.99,,,-99.99,,2013-10-20 19:12:00,
2013-10-20 15:22:00,61.0,45.0,29.87,SSW,200,16.0,-999.0,56,-99.99,,,-99.99,,2013-10-20 19:22:00,
2013-10-20 15:42:00,61.0,46.0,29.86,SSW,204,18.0,-999.0,57,-99.99,,,-99.99,,2013-10-20 19:42:00,
2013-10-20 15:52:00,61.0,45.0,29.87,SW,222,15.0,-999.0,56,-99.99,,,-99.99,,2013-10-20 19:52:00,
2013-10-20 16:11:00,62.0,46.0,29.86,SW,220,17.0,-999.0,55,-99.99,,,-99.99,,2013-10-20 20:11:00,
2013-10-20 16:22:00,63.0,46.0,29.86,SW,219,17.0,-999.0,54,-99.99,,,-99.99,,2013-10-20 20:22:00,
2013-10-20 16:43:00,64.0,47.0,29.86,SSW,210,19.0,-999.0,54,-99.99,,,-99.99,,2013-10-20 20:43:00,
2013-10-20 16:52:00,62.0,44.0,29.85,SSW,208,18.0,-999.0,52,-99.99,,,-99.99,,2013-10-20 20:52:00,
2013-10-20 17:11:00,63.0,46.0,29.86,SSW,206,21.0,-999.0,54,-99.99,,,-99.99,,2013-10-20 21:11:00,
2013-10-20 17:22:00,63.0,46.0,29.86,SSW,204,19.0,-999.0,53,-99.99,,,-99.99,,2013-10-20 21:22:00,
2013-10-20 17:44:00,62.0,44.0,29.86,SSW,199,19.0,-999.0,52,-99.99,,,-99.99,,2013-10-20 21:44:00,
2013-10-20 17:54:00,61.0,44.0,29.85,SSW,202,18.0,-999.0,54,-99.99,,,-99.99,,2013-10-20 21:54:00,
2013-10-20 18:13:00,61.0,45.0,29.86,South,190,15.0,-999.0,56,-99.99,,,-99.99,,2013-10-20 22:13:00,
2013-10-20 18:23:00,61.0,45.0,29.86,SSW,213,19.0,-999.0,55,-99.99,,,-99.99,,2013-10-20 22:23:00,
2013-10-20 18:43:00,60.0,44.0,29.86,SSW,209,15.0,-999.0,55,-99.99,,,-99.99,,2013-10-20 22:43:00,
2013-10-20 18:53:00,60.0,45.0,29.86,SSW,192,15.0,-999.0,57,-99.99,,,-99.99,,2013-10-20 22:53:00,
2013-10-20 19:13:00,59.0,44.0,29.86,SSW,194,17.0,-999.0,57,-99.99,,,-99.99,,2013-10-20 23:13:00,
2013-10-20 19:22:00,58.0,44.0,29.86,South,186,16.0,-999.0,59,-99.99,,,-99.99,,2013-10-20 23:22:00,
2013-10-20 19:43:00,58.0,44.0,29.86,South,184,12.0,-999.0,60,-99.99,,,-99.99,,2013-10-20 23:43:00,
2013-10-20 19:52:00,58.0,45.0,29.85,South,186,16.0,-999.0,61,-99.99,,,-99.99,,2013-10-20 23:52:00,
2013-10-20 20:12:00,57.0,44.0,29.86,SSW,196,15.0,-999.0,61,-99.99,,,-99.99,,2013-10-21 00:12:00,
2013-10-20 20:22:00,57.0,44.0,29.86,SSW,196,15.0,-999.0,61,-99.99,,,-99.99,,2013-10-21 00:22:00,
2013-10-20 20:43:00,57.0,44.0,29.86,South,186,17.0,-999.0,61,-99.99,,,-99.99,,2013-10-21 00:43:00,
2013-10-20 20:52:00,57.0,44.0,29.86,SSW,194,20.0,-999.0,62,-99.99,,,-99.99,,2013-10-21 00:52:00,
2013-10-20 21:12:00,56.0,44.0,29.87,SSW,196,18.0,-999.0,63,-99.99,,,-99.99,,2013-10-21 01:12:00,
2013-10-20 21:22:00,56.0,44.0,29.88,SSW,196,18.0,-999.0,64,-99.99,,,-99.99,,2013-10-21 01:22:00,
2013-10-20 21:42:00,56.0,44.0,29.88,SSW,195,20.0,-999.0,64,-99.99,,,-99.99,,2013-10-21 01:42:00,
2013-10-20 21:52:00,56.0,44.0,29.88,South,188,21.0,-999.0,64,-99.99,,,-99.99,,2013-10-21 01:52:00,
2013-10-20 22:12:00,55.0,43.0,29.88,SSW,207,21.0,-999.0,65,-99.99,,,-99.99,,2013-10-21 02:12:00,
2013-10-20 22:22:00,55.0,43.0,29.88,SSW,200,20.0,-999.0,65,-99.99,,,-99.99,,2013-10-21 02:22:00,
2013-10-20 22:42:00,55.0,44.0,29.88,SSW,199,20.0,-999.0,66,-99.99,,,-99.99,,2013-10-21 02:42:00,
2013-10-20 22:52:00,55.0,44.0,29.88,SSW,193,21.0,-999.0,66,-99.99,,,-99.99,,2013-10-21 02:52:00,
2013-10-20 23:12:00,55.0,44.0,29.88,SSW,200,21.0,-999.0,66,-99.99,,,-99.99,,2013-10-21 03:12:00,
2013-10-20 23:22:00,54.0,43.0,29.88,SSW,200,20.0,-999.0,67,-99.99,,,-99.99,,2013-10-21 03:22:00,
2013-10-20 23:45:00,54.0,43.0,29.89,South,191,19.0,-999.0,67,-99.99,,,-99.99,,2013-10-21 03:45:00,
2013-10-20 23:55:00,54.0,44.0,29.89,SSW,198,20.0,-999.0,68,-99.99,,,-99.99,,2013-10-21 03:55:00,